createdAt,value
2022-08-09T00:00:46.108Z,18.03
2022-08-09T00:01:54.955Z,18.00
2022-08-09T00:02:49.331Z,18.05
2022-08-09T00:04:05.874Z,18.00
2022-08-09T00:04:43.254Z,18.06
2022-08-09T00:06:17.287Z,18.03
2022-08-09T00:06:44.346Z,17.95
2022-08-09T00:07:44.915Z,18.06
2022-08-09T00:08:43.085Z,17.97
2022-08-09T00:09:43.046Z,18.03
2022-08-09T00:10:43.005Z,18.03
2022-08-09T00:12:04.281Z,18.05
2022-08-09T00:12:43.003Z,18.11
2022-08-09T00:13:42.883Z,18.15
2022-08-09T00:14:42.841Z,18.13
2022-08-09T00:15:57.912Z,18.15
2022-08-09T00:16:42.755Z,18.09
2022-08-09T00:18:05.314Z,18.08
2022-08-09T00:18:42.687Z,18.02
2022-08-09T00:19:42.636Z,18.00
2022-08-09T00:20:50.044Z,18.00
2022-08-09T00:21:56.157Z,17.95
2022-08-09T00:22:42.508Z,17.94
2022-08-09T00:23:54.835Z,17.94
2022-08-09T00:24:42.428Z,17.88
2022-08-09T00:25:42.385Z,17.93
2022-08-09T00:26:42.347Z,17.88
2022-08-09T00:27:43.085Z,17.87
2022-08-09T00:28:42.295Z,17.87
2022-08-09T00:30:16.315Z,17.84
2022-08-09T00:30:42.182Z,17.84
2022-08-09T00:31:58.233Z,17.91
2022-08-09T00:32:42.384Z,17.80
2022-08-09T00:33:51.245Z,17.82
2022-08-09T00:34:52.038Z,17.88
2022-08-09T00:35:43.309Z,17.79
2022-08-09T00:36:41.933Z,17.86
2022-08-09T00:37:41.889Z,17.80
2022-08-09T00:38:41.848Z,17.80
2022-08-09T00:40:09.115Z,17.86
2022-08-09T00:40:52.834Z,17.86
2022-08-09T00:44:10.158Z,17.78
2022-08-09T00:44:10.786Z,17.82
2022-08-09T00:44:20.130Z,17.76
2022-08-09T00:44:41.599Z,17.88
2022-08-09T00:45:50.510Z,17.91
2022-08-09T00:46:55.777Z,17.80
2022-08-09T00:47:41.487Z,17.86
2022-08-09T00:48:41.435Z,17.86
2022-08-09T00:49:41.392Z,17.88
2022-08-09T00:50:41.348Z,17.84
2022-08-09T00:51:54.182Z,17.86
2022-08-09T00:52:41.286Z,17.88
2022-08-09T00:53:41.230Z,17.75
2022-08-09T00:54:41.186Z,17.78
2022-08-09T00:56:04.926Z,17.72
2022-08-09T00:56:41.100Z,17.73
2022-08-09T00:57:41.058Z,17.68
2022-08-09T00:58:41.032Z,17.65
2022-08-09T00:59:46.747Z,17.69
2022-08-09T01:00:40.938Z,17.68
2022-08-09T01:01:44.657Z,17.54
2022-08-09T01:02:40.868Z,17.59
2022-08-09T01:03:46.312Z,17.60
2022-08-09T01:04:40.772Z,17.53
2022-08-09T01:05:54.349Z,17.60
2022-08-09T01:06:54.531Z,17.56
2022-08-09T01:07:59.693Z,17.57
2022-08-09T01:08:40.617Z,17.56
2022-08-09T01:09:40.565Z,17.54
2022-08-09T01:10:40.524Z,17.57
2022-08-09T01:11:40.483Z,17.50
2022-08-09T01:12:40.435Z,17.50
2022-08-09T01:13:41.764Z,17.63
2022-08-09T01:14:40.370Z,17.59
2022-08-09T01:15:43.423Z,17.59
2022-08-09T01:16:40.271Z,17.57
2022-08-09T01:17:40.227Z,17.53
2022-08-09T01:18:40.190Z,17.52
2022-08-09T01:19:51.896Z,17.52
2022-08-09T01:20:40.121Z,17.52
2022-08-09T01:21:44.718Z,17.50
2022-08-09T01:22:40.021Z,17.59
2022-08-09T01:24:02.294Z,17.53
2022-08-09T01:24:39.939Z,17.53
2022-08-09T01:25:41.950Z,17.52
2022-08-09T01:26:39.858Z,17.53
2022-08-09T01:27:39.923Z,17.56
2022-08-09T01:28:39.774Z,17.50
2022-08-09T01:29:41.283Z,17.49
2022-08-09T01:30:52.185Z,17.50
2022-08-09T01:32:30.334Z,17.52
2022-08-09T01:32:45.302Z,17.44
2022-08-09T01:33:39.582Z,17.49
2022-08-09T01:34:39.530Z,17.50
2022-08-09T01:35:39.482Z,17.49
2022-08-09T01:36:39.453Z,17.41
2022-08-09T01:38:05.727Z,17.38
2022-08-09T01:38:40.050Z,17.32
2022-08-09T01:39:39.406Z,17.30
2022-08-09T01:40:39.272Z,17.22
2022-08-09T01:41:39.233Z,17.28
2022-08-09T01:42:39.203Z,17.30
2022-08-09T01:43:50.657Z,17.16
2022-08-09T01:44:39.108Z,17.24
2022-08-09T01:45:46.392Z,17.19
2022-08-09T01:46:39.021Z,17.22
2022-08-09T01:47:44.941Z,17.16
2022-08-09T01:48:38.939Z,17.16
2022-08-09T01:49:39.889Z,17.17
2022-08-09T01:50:41.894Z,17.05
2022-08-09T01:51:38.814Z,17.14
2022-08-09T01:52:41.282Z,17.04
2022-08-09T01:53:41.178Z,17.05
2022-08-09T01:54:38.691Z,17.07
2022-08-09T01:55:38.887Z,17.07
2022-08-09T01:56:38.606Z,17.07
2022-08-09T01:57:40.158Z,17.10
2022-08-09T01:58:38.523Z,17.09
2022-08-09T01:59:51.066Z,17.02
2022-08-09T02:00:38.438Z,17.04
2022-08-09T02:01:57.968Z,16.95
2022-08-09T02:02:38.356Z,16.99
2022-08-09T02:03:38.318Z,16.98
2022-08-09T02:04:45.411Z,16.95
2022-08-09T02:06:04.061Z,16.99
2022-08-09T02:06:38.188Z,17.01
2022-08-09T02:08:39.840Z,16.99
2022-08-09T02:08:57.705Z,16.98
2022-08-09T02:09:42.092Z,16.92
2022-08-09T02:10:38.033Z,16.95
2022-08-09T02:11:42.649Z,16.87
2022-08-09T02:12:37.937Z,16.95
2022-08-09T02:13:40.693Z,16.92
2022-08-09T02:14:37.853Z,16.87
2022-08-09T02:15:49.046Z,16.87
2022-08-09T02:16:59.632Z,16.94
2022-08-09T02:18:01.255Z,16.89
2022-08-09T02:18:37.686Z,16.98
2022-08-09T02:19:39.091Z,17.01
2022-08-09T02:20:37.636Z,16.97
2022-08-09T02:21:38.342Z,16.99
2022-08-09T02:22:37.519Z,16.92
2022-08-09T02:23:39.834Z,16.97
2022-08-09T02:24:37.435Z,16.97
2022-08-09T02:25:41.863Z,16.95
2022-08-09T02:26:37.361Z,16.98
2022-08-09T02:27:58.210Z,16.91
2022-08-09T02:28:37.270Z,16.95
2022-08-09T02:29:37.232Z,16.95
2022-08-09T02:30:37.192Z,16.92
2022-08-09T02:31:37.152Z,16.87
2022-08-09T02:32:37.160Z,16.92
2022-08-09T02:33:58.130Z,16.89
2022-08-09T02:34:40.618Z,16.83
2022-08-09T02:36:01.251Z,16.82
2022-08-09T02:36:36.936Z,16.79
2022-08-09T02:37:36.918Z,16.84
2022-08-09T02:38:36.874Z,16.80
2022-08-09T02:39:41.971Z,16.82
2022-08-09T02:40:36.832Z,16.83
2022-08-09T02:41:36.727Z,16.77
2022-08-09T02:42:36.680Z,16.76
2022-08-09T02:43:53.504Z,16.77
2022-08-09T02:44:36.613Z,16.74
2022-08-09T02:45:36.556Z,16.80
2022-08-09T02:46:36.516Z,16.74
2022-08-09T02:47:57.181Z,16.77
2022-08-09T02:48:36.436Z,16.74
2022-08-09T02:49:38.980Z,16.79
2022-08-09T02:50:36.357Z,16.76
2022-08-09T02:51:39.961Z,16.79
2022-08-09T02:52:36.262Z,16.76
2022-08-09T02:53:36.225Z,16.69
2022-08-09T02:54:36.190Z,16.79
2022-08-09T02:55:46.441Z,16.76
2022-08-09T02:56:36.473Z,16.79
2022-08-09T02:57:40.447Z,16.80
2022-08-09T02:58:38.029Z,16.77
2022-08-09T02:59:36.692Z,16.74
2022-08-09T03:00:35.981Z,16.77
2022-08-09T03:01:42.598Z,16.76
2022-08-09T03:02:36.097Z,16.76
2022-08-09T03:04:12.388Z,16.77
2022-08-09T03:04:35.763Z,16.76
2022-08-09T03:05:35.722Z,16.69
2022-08-09T03:06:36.215Z,16.76
2022-08-09T03:07:35.633Z,16.74
2022-08-09T03:08:35.596Z,16.73
2022-08-09T03:09:35.554Z,16.74
2022-08-09T03:10:35.508Z,16.76
2022-08-09T03:12:09.619Z,16.72
2022-08-09T03:12:35.422Z,16.69
2022-08-09T03:13:43.971Z,16.76
2022-08-09T03:14:36.534Z,16.74
2022-08-09T03:15:40.453Z,16.68
2022-08-09T03:16:38.417Z,16.76
2022-08-09T03:17:35.231Z,16.76
2022-08-09T03:18:35.172Z,16.69
2022-08-09T03:19:57.775Z,16.77
2022-08-09T03:20:35.089Z,16.77
2022-08-09T03:21:39.446Z,16.68
2022-08-09T03:22:41.954Z,16.59
2022-08-09T03:23:34.963Z,16.74
2022-08-09T03:24:51.670Z,16.69
2022-08-09T03:25:59.260Z,16.77
2022-08-09T03:26:34.837Z,16.66
2022-08-09T03:27:44.780Z,16.73
2022-08-09T03:28:34.754Z,16.79
2022-08-09T03:29:35.773Z,16.74
2022-08-09T03:30:36.717Z,16.72
2022-08-09T03:31:34.633Z,16.73
2022-08-09T03:32:36.824Z,16.62
2022-08-09T03:33:54.138Z,16.69
2022-08-09T03:34:34.499Z,16.64
2022-08-09T03:36:11.160Z,16.59
2022-08-09T03:36:34.421Z,16.59
2022-08-09T03:37:56.082Z,16.54
2022-08-09T03:38:34.332Z,16.46
2022-08-09T03:39:38.117Z,16.41
2022-08-09T03:40:34.249Z,16.46
2022-08-09T03:41:45.874Z,16.39
2022-08-09T03:42:34.261Z,16.46
2022-08-09T03:43:34.121Z,16.49
2022-08-09T03:44:34.079Z,16.41
2022-08-09T03:46:04.164Z,16.46
2022-08-09T03:46:34.010Z,16.41
2022-08-09T03:47:36.703Z,16.44
2022-08-09T03:48:33.915Z,16.41
2022-08-09T03:49:35.841Z,16.46
2022-08-09T03:50:33.833Z,16.40
2022-08-09T03:51:57.588Z,16.44
2022-08-09T03:52:34.018Z,16.40
2022-08-09T03:53:37.041Z,16.40
2022-08-09T03:54:34.615Z,16.37
2022-08-09T03:55:36.213Z,16.49
2022-08-09T03:56:33.575Z,16.41
2022-08-09T03:57:33.554Z,16.47
2022-08-09T03:58:33.493Z,16.43
2022-08-09T03:59:53.195Z,16.50
2022-08-09T04:00:33.455Z,16.51
2022-08-09T04:01:33.365Z,16.55
2022-08-09T04:02:33.769Z,16.44
2022-08-09T04:03:45.982Z,16.44
2022-08-09T04:04:38.703Z,16.47
2022-08-09T04:05:33.192Z,16.41
2022-08-09T04:06:33.159Z,16.36
2022-08-09T04:07:47.726Z,16.40
2022-08-09T04:08:33.071Z,16.39
2022-08-09T04:09:48.313Z,16.39
2022-08-09T04:10:32.986Z,16.43
2022-08-09T04:11:32.945Z,16.39
2022-08-09T04:12:32.902Z,16.44
2022-08-09T04:14:37.524Z,16.41
2022-08-09T04:14:43.979Z,16.46
2022-08-09T04:16:17.314Z,16.47
2022-08-09T04:16:32.739Z,16.44
2022-08-09T04:17:32.691Z,16.41
2022-08-09T04:18:32.667Z,16.44
2022-08-09T04:19:51.166Z,16.41
2022-08-09T04:20:32.726Z,16.34
2022-08-09T04:21:38.534Z,16.39
2022-08-09T04:22:32.719Z,16.40
2022-08-09T04:23:32.439Z,16.32
2022-08-09T04:24:32.398Z,16.37
2022-08-09T04:25:32.359Z,16.28
2022-08-09T04:26:37.722Z,16.32
2022-08-09T04:27:32.802Z,16.28
2022-08-09T04:28:36.085Z,16.28
2022-08-09T04:29:32.185Z,16.34
2022-08-09T04:30:32.267Z,16.37
2022-08-09T04:31:37.643Z,16.29
2022-08-09T04:32:37.019Z,16.36
2022-08-09T04:33:32.015Z,16.36
2022-08-09T04:34:32.102Z,16.43
2022-08-09T04:35:32.873Z,16.44
2022-08-09T04:36:31.891Z,16.37
2022-08-09T04:37:45.392Z,16.43
2022-08-09T04:38:31.806Z,16.41
2022-08-09T04:39:31.824Z,16.51
2022-08-09T04:40:36.548Z,16.43
2022-08-09T04:41:33.220Z,16.50
2022-08-09T04:42:31.832Z,16.59
2022-08-09T04:43:35.129Z,16.59
2022-08-09T04:44:31.557Z,16.58
2022-08-09T04:45:36.073Z,16.72
2022-08-09T04:46:38.176Z,16.65
2022-08-09T04:47:45.201Z,16.62
2022-08-09T04:48:33.357Z,16.64
2022-08-09T04:49:52.979Z,16.66
2022-08-09T04:50:33.656Z,16.65
2022-08-09T04:51:31.269Z,16.68
2022-08-09T04:52:31.228Z,16.66
2022-08-09T04:53:31.505Z,16.66
2022-08-09T04:54:31.132Z,16.69
2022-08-09T04:55:38.215Z,16.57
2022-08-09T04:56:31.049Z,16.65
2022-08-09T04:57:59.431Z,16.57
2022-08-09T04:58:32.800Z,16.61
2022-08-09T04:59:30.920Z,16.69
2022-08-09T05:00:34.245Z,16.58
2022-08-09T05:01:30.836Z,16.58
2022-08-09T05:02:31.060Z,16.58
2022-08-09T05:03:43.027Z,16.65
2022-08-09T05:04:31.478Z,16.68
2022-08-09T05:05:32.319Z,16.55
2022-08-09T05:06:35.714Z,16.65
2022-08-09T05:07:32.018Z,16.68
2022-08-09T05:08:30.548Z,16.65
2022-08-09T05:09:41.913Z,16.74
2022-08-09T05:10:30.457Z,16.74
2022-08-09T05:11:35.580Z,16.68
2022-08-09T05:12:30.939Z,16.68
2022-08-09T05:13:33.161Z,16.69
2022-08-09T05:14:30.296Z,16.74
2022-08-09T05:15:43.013Z,16.77
2022-08-09T05:16:31.627Z,16.80
2022-08-09T05:18:38.838Z,16.80
2022-08-09T05:18:39.319Z,16.84
2022-08-09T05:19:31.913Z,16.94
2022-08-09T05:20:30.448Z,16.91
2022-08-09T05:21:36.538Z,16.91
2022-08-09T05:22:35.985Z,16.95
2022-08-09T05:23:59.861Z,17.09
2022-08-09T05:24:29.874Z,17.04
2022-08-09T05:25:32.449Z,17.13
2022-08-09T05:26:36.292Z,17.17
2022-08-09T05:27:30.260Z,17.16
2022-08-09T05:28:29.704Z,17.23
2022-08-09T05:29:31.228Z,17.34
2022-08-09T05:30:30.058Z,17.31
2022-08-09T05:31:44.997Z,17.38
2022-08-09T05:32:30.023Z,17.41
2022-08-09T05:33:33.080Z,17.46
2022-08-09T05:34:30.797Z,17.41
2022-08-09T05:35:29.411Z,17.42
2022-08-09T05:36:29.372Z,17.46
2022-08-09T05:37:29.329Z,17.46
2022-08-09T05:38:29.285Z,17.46
2022-08-09T05:39:36.164Z,17.54
2022-08-09T05:40:29.206Z,17.44
2022-08-09T05:41:29.163Z,17.47
2022-08-09T05:42:29.118Z,17.53
2022-08-09T05:43:31.848Z,17.56
2022-08-09T05:44:32.731Z,17.57
2022-08-09T05:45:52.799Z,17.63
2022-08-09T05:46:28.955Z,17.65
2022-08-09T05:47:30.437Z,17.68
2022-08-09T05:48:33.191Z,17.71
2022-08-09T05:49:33.975Z,17.66
2022-08-09T05:50:44.352Z,17.75
2022-08-09T05:51:43.029Z,17.87
2022-08-09T05:52:30.744Z,17.90
2022-08-09T05:53:33.203Z,18.02
2022-08-09T05:54:28.617Z,18.02
2022-08-09T05:55:28.576Z,18.11
2022-08-09T05:56:28.546Z,18.15
2022-08-09T05:57:57.085Z,18.23
2022-08-09T05:58:28.448Z,18.26
2022-08-09T05:59:28.422Z,18.30
2022-08-09T06:03:58.569Z,18.46
2022-08-09T06:04:46.776Z,18.43
2022-08-09T06:05:54.525Z,18.46
2022-08-09T06:06:49.693Z,18.57
2022-08-09T06:08:05.540Z,18.46
2022-08-09T06:08:52.690Z,18.55
2022-08-09T06:09:55.079Z,18.52
2022-08-09T06:10:46.855Z,18.51
2022-08-09T06:11:56.863Z,18.67
2022-08-09T06:12:46.440Z,18.71
2022-08-09T06:13:47.481Z,18.73
2022-08-09T06:14:46.627Z,18.71
2022-08-09T06:15:46.781Z,18.74
2022-08-09T06:16:52.426Z,18.74
2022-08-09T06:17:46.820Z,18.81
2022-08-09T06:18:46.457Z,18.88
2022-08-09T06:19:46.473Z,19.00
2022-08-09T06:20:49.901Z,19.01
2022-08-09T06:21:50.548Z,18.96
2022-08-09T06:22:46.028Z,19.09
2022-08-09T06:23:58.144Z,19.07
2022-08-09T06:24:46.138Z,19.19
2022-08-09T06:25:45.902Z,19.15
2022-08-09T06:26:46.106Z,19.20
2022-08-09T06:27:51.789Z,19.34
2022-08-09T06:28:45.907Z,19.32
2022-08-09T06:29:48.330Z,19.34
2022-08-09T06:30:45.723Z,19.41
2022-08-09T06:32:52.952Z,19.48
2022-08-09T06:32:59.898Z,19.60
2022-08-09T06:33:53.041Z,19.67
2022-08-09T06:34:47.228Z,19.72
2022-08-09T06:35:57.491Z,19.82
2022-08-09T06:36:45.514Z,19.94
2022-08-09T06:37:53.129Z,20.08
2022-08-09T06:38:47.241Z,20.10
2022-08-09T06:39:57.373Z,20.11
2022-08-09T06:40:45.314Z,20.12
2022-08-09T06:42:08.269Z,20.29
2022-08-09T06:42:46.789Z,20.30
2022-08-09T06:43:45.169Z,20.42
2022-08-09T06:44:45.307Z,20.46
2022-08-09T06:46:04.959Z,20.46
2022-08-09T06:46:45.047Z,20.48
2022-08-09T06:47:45.126Z,20.59
2022-08-09T06:48:45.184Z,20.68
2022-08-09T06:50:13.757Z,20.75
2022-08-09T06:50:44.948Z,20.83
2022-08-09T06:51:45.985Z,20.92
2022-08-09T06:52:44.962Z,21.05
2022-08-09T06:53:44.757Z,21.10
2022-08-09T06:54:44.768Z,21.11
2022-08-09T06:55:44.679Z,21.15
2022-08-09T06:56:45.596Z,21.22
2022-08-09T06:58:02.483Z,21.35
2022-08-09T07:00:49.218Z,21.53
2022-08-09T07:00:51.561Z,21.45
2022-08-09T07:00:55.799Z,21.58
2022-08-09T07:01:53.828Z,21.62
2022-08-09T07:02:44.436Z,21.69
2022-08-09T07:03:53.205Z,21.80
2022-08-09T07:04:44.320Z,21.83
2022-08-09T07:06:02.199Z,21.83
2022-08-09T07:06:44.459Z,21.97
2022-08-09T07:08:00.389Z,22.12
2022-08-09T07:08:44.150Z,22.15
2022-08-09T07:09:56.439Z,22.18
2022-08-09T07:10:44.318Z,22.28
2022-08-09T07:11:51.962Z,22.46
2022-08-09T07:12:44.127Z,22.47
2022-08-09T07:14:03.576Z,22.43
2022-08-09T07:14:43.922Z,22.49
2022-08-09T07:16:35.057Z,22.55
2022-08-09T07:16:49.763Z,22.61
2022-08-09T07:17:52.561Z,22.70
2022-08-09T07:18:43.968Z,22.77
2022-08-09T07:19:43.925Z,22.83
2022-08-09T07:20:44.550Z,22.88
2022-08-09T07:21:55.699Z,22.92
2022-08-09T07:22:49.560Z,22.95
2022-08-09T07:23:46.639Z,22.98
2022-08-09T07:24:44.558Z,23.02
2022-08-09T07:25:43.643Z,22.99
2022-08-09T07:26:43.481Z,23.07
2022-08-09T07:27:53.569Z,23.06
2022-08-09T07:29:08.558Z,23.16
2022-08-09T07:29:43.318Z,23.16
2022-08-09T07:30:43.390Z,23.14
2022-08-09T07:31:45.248Z,23.20
2022-08-09T07:32:43.612Z,23.25
2022-08-09T07:33:52.697Z,23.25
2022-08-09T07:34:43.125Z,23.26
2022-08-09T07:35:53.868Z,23.32
2022-08-09T07:36:43.046Z,23.33
2022-08-09T07:37:44.838Z,23.47
2022-08-09T07:38:46.557Z,23.47
2022-08-09T07:39:43.201Z,23.56
2022-08-09T07:41:00.872Z,23.58
2022-08-09T07:41:42.848Z,23.56
2022-08-09T07:42:42.862Z,23.70
2022-08-09T07:43:49.855Z,23.70
2022-08-09T07:44:51.769Z,23.70
2022-08-09T07:45:42.889Z,23.79
2022-08-09T07:46:43.061Z,23.85
2022-08-09T07:48:00.737Z,23.91
2022-08-09T07:50:14.455Z,23.94
2022-08-09T07:52:04.715Z,23.89
2022-08-09T07:52:18.039Z,24.01
2022-08-09T07:53:13.998Z,23.94
2022-08-09T07:54:14.073Z,23.99
2022-08-09T07:55:14.063Z,24.01
2022-08-09T07:56:26.883Z,24.06
2022-08-09T07:57:13.892Z,24.16
2022-08-09T07:58:14.139Z,24.13
2022-08-09T07:59:15.747Z,24.18
2022-08-09T08:00:13.724Z,24.28
2022-08-09T08:01:14.068Z,24.34
2022-08-09T08:02:19.826Z,24.38
2022-08-09T08:03:13.612Z,24.31
2022-08-09T08:04:13.569Z,24.38
2022-08-09T08:05:18.061Z,24.46
2022-08-09T08:06:14.241Z,24.65
2022-08-09T08:07:57.132Z,24.61
2022-08-09T08:08:59.970Z,24.65
2022-08-09T08:09:34.294Z,24.62
2022-08-09T08:10:13.348Z,24.50
2022-08-09T08:12:10.885Z,24.77
2022-08-09T08:12:28.008Z,24.79
2022-08-09T08:13:13.221Z,24.82
2022-08-09T08:14:13.297Z,24.86
2022-08-09T08:15:13.925Z,25.19
2022-08-09T08:16:31.445Z,25.41
2022-08-09T08:17:14.137Z,25.89
2022-08-09T08:18:14.430Z,26.29
2022-08-09T08:19:13.133Z,26.79
2022-08-09T08:20:13.624Z,27.37
2022-08-09T08:21:12.910Z,27.64
2022-08-09T08:22:12.945Z,28.18
2022-08-09T08:23:16.801Z,28.71
2022-08-09T08:24:16.524Z,29.21
2022-08-09T08:25:13.402Z,29.68
2022-08-09T08:26:13.145Z,30.16
2022-08-09T08:27:16.752Z,30.55
2022-08-09T08:28:14.373Z,30.92
2022-08-09T08:29:12.609Z,31.22
2022-08-09T08:30:12.699Z,31.41
2022-08-09T08:31:14.982Z,31.73
2022-08-09T08:32:12.641Z,31.97
2022-08-09T08:33:22.803Z,32.08
2022-08-09T08:34:12.427Z,32.26
2022-08-09T08:35:12.631Z,32.31
2022-08-09T08:36:12.481Z,32.29
2022-08-09T08:37:15.701Z,32.60
2022-08-09T08:38:12.447Z,32.75
2022-08-09T08:39:12.507Z,32.90
2022-08-09T08:40:12.204Z,33.12
2022-08-09T08:41:12.262Z,33.28
2022-08-09T08:42:12.150Z,33.48
2022-08-09T08:43:13.414Z,33.76
2022-08-09T08:44:13.716Z,33.89
2022-08-09T08:45:13.787Z,33.79
2022-08-09T08:46:33.022Z,34.06
2022-08-09T08:47:13.375Z,34.21
2022-08-09T08:48:11.950Z,34.37
2022-08-09T08:49:12.846Z,34.66
2022-08-09T08:50:11.850Z,35.07
2022-08-09T08:51:11.809Z,35.30
2022-08-09T08:52:20.320Z,35.54
2022-08-09T08:53:16.126Z,35.72
2022-08-09T08:54:11.708Z,35.74
2022-08-09T08:55:13.577Z,35.96
2022-08-09T08:56:16.819Z,36.17
2022-08-09T08:57:11.861Z,36.44
2022-08-09T08:58:11.567Z,36.51
2022-08-09T08:59:19.016Z,36.57
2022-08-09T09:00:17.088Z,36.69
2022-08-09T09:01:19.757Z,36.94
2022-08-09T09:02:11.463Z,37.06
2022-08-09T09:03:22.707Z,37.14
2022-08-09T09:04:11.356Z,37.19
2022-08-09T09:05:12.201Z,37.18
2022-08-09T09:06:11.288Z,36.99
2022-08-09T09:07:11.324Z,37.25
2022-08-09T09:08:31.124Z,37.18
2022-08-09T09:09:41.091Z,37.22
2022-08-09T09:10:11.150Z,37.25
2022-08-09T09:11:13.559Z,37.36
2022-08-09T09:12:16.744Z,37.57
2022-08-09T09:13:11.610Z,37.71
2022-08-09T09:14:11.018Z,37.75
2022-08-09T09:15:12.137Z,37.94
2022-08-09T09:16:11.187Z,38.04
2022-08-09T09:17:10.918Z,38.27
2022-08-09T09:18:10.995Z,38.54
2022-08-09T09:19:41.246Z,38.72
2022-08-09T09:20:18.812Z,38.27
2022-08-09T09:21:10.786Z,38.10
2022-08-09T09:22:11.598Z,37.85
2022-08-09T09:23:14.195Z,37.67
2022-08-09T09:24:19.734Z,37.47
2022-08-09T09:26:01.831Z,37.34
2022-08-09T09:26:12.286Z,37.33
2022-08-09T09:28:02.859Z,37.15
2022-08-09T09:28:11.155Z,37.11
2022-08-09T09:29:16.785Z,37.44
2022-08-09T09:30:21.759Z,37.58
2022-08-09T09:31:17.616Z,37.48
2022-08-09T09:32:15.386Z,37.60
2022-08-09T09:33:16.554Z,37.63
2022-08-09T09:34:10.405Z,37.34
2022-08-09T09:35:10.507Z,37.57
2022-08-09T09:36:19.990Z,37.38
2022-08-09T09:37:13.024Z,37.48
2022-08-09T09:38:10.327Z,37.80
2022-08-09T09:39:10.418Z,38.01
2022-08-09T09:40:11.613Z,38.44
2022-08-09T09:41:10.699Z,38.75
2022-08-09T09:42:12.032Z,39.12
2022-08-09T09:43:10.127Z,39.42
2022-08-09T09:44:12.706Z,39.73
2022-08-09T09:45:10.473Z,39.67
2022-08-09T09:46:41.960Z,39.71
2022-08-09T09:47:10.047Z,39.86
2022-08-09T09:48:10.093Z,39.88
2022-08-09T09:49:09.959Z,39.59
2022-08-09T09:50:15.734Z,39.73
2022-08-09T09:51:11.725Z,39.97
2022-08-09T09:52:35.730Z,40.12
2022-08-09T09:53:10.708Z,40.17
2022-08-09T09:54:21.039Z,40.12
2022-08-09T09:55:24.286Z,40.24
2022-08-09T09:56:19.830Z,40.26
2022-08-09T09:58:01.681Z,40.40
2022-08-09T09:58:15.634Z,40.51
2022-08-09T09:59:09.684Z,40.58
2022-08-09T10:00:09.764Z,40.61
2022-08-09T10:01:35.888Z,40.78
2022-08-09T10:02:09.620Z,40.51
2022-08-09T10:03:13.861Z,40.80
2022-08-09T10:04:10.016Z,40.80
2022-08-09T10:05:09.526Z,40.81
2022-08-09T10:06:09.610Z,40.89
2022-08-09T10:07:10.129Z,40.89
2022-08-09T10:08:28.030Z,41.05
2022-08-09T10:09:11.978Z,41.39
2022-08-09T10:10:09.396Z,41.49
2022-08-09T10:11:53.750Z,41.33
2022-08-09T10:12:14.509Z,41.45
2022-08-09T10:13:10.196Z,41.48
2022-08-09T10:14:09.458Z,41.34
2022-08-09T10:15:10.678Z,41.39
2022-08-09T10:16:58.173Z,41.34
2022-08-09T10:17:38.708Z,41.45
2022-08-09T10:18:10.309Z,41.63
2022-08-09T10:19:10.205Z,41.88
2022-08-09T10:20:15.032Z,41.78
2022-08-09T10:21:09.303Z,41.99
2022-08-09T10:22:09.082Z,42.29
2022-08-09T10:23:09.134Z,42.63
2022-08-09T10:24:09.035Z,42.86
2022-08-09T10:25:12.060Z,42.96
2022-08-09T10:26:11.123Z,42.65
2022-08-09T10:27:10.228Z,42.65
2022-08-09T10:28:09.149Z,42.86
2022-08-09T10:29:21.256Z,42.63
2022-08-09T10:32:03.771Z,42.43
2022-08-09T10:32:27.602Z,42.40
2022-08-09T10:33:08.793Z,42.70
2022-08-09T10:34:32.809Z,42.92
2022-08-09T10:35:09.799Z,42.58
2022-08-09T10:36:09.439Z,42.32
2022-08-09T10:37:09.850Z,42.07
2022-08-09T10:38:33.630Z,41.95
2022-08-09T10:39:15.499Z,41.93
2022-08-09T10:40:08.724Z,42.02
2022-08-09T10:41:08.816Z,42.00
2022-08-09T10:42:08.583Z,42.00
2022-08-09T10:43:08.994Z,42.25
2022-08-09T10:44:08.517Z,42.32
2022-08-09T10:45:12.053Z,42.56
2022-08-09T10:46:08.468Z,42.43
2022-08-09T10:48:14.273Z,42.61
2022-08-09T10:48:16.214Z,42.52
2022-08-09T10:49:10.396Z,42.82
2022-08-09T10:50:09.972Z,43.02
2022-08-09T10:51:08.346Z,43.07
2022-08-09T10:52:08.320Z,43.11
2022-08-09T10:53:10.340Z,43.25
2022-08-09T10:54:12.128Z,43.46
2022-08-09T10:55:08.242Z,43.62
2022-08-09T10:56:08.244Z,43.68
2022-08-09T10:57:08.200Z,43.41
2022-08-09T10:58:08.199Z,43.39
2022-08-09T10:59:08.148Z,43.00
2022-08-09T11:00:08.188Z,43.25
2022-08-09T11:03:06.430Z,43.19
2022-08-09T11:03:13.091Z,43.57
2022-08-09T11:03:27.276Z,43.38
2022-08-09T11:04:19.998Z,43.47
2022-08-09T11:05:08.061Z,43.51
2022-08-09T11:06:08.002Z,43.16
2022-08-09T11:07:07.954Z,43.11
2022-08-09T11:08:07.927Z,42.90
2022-08-09T11:09:16.222Z,42.94
2022-08-09T11:10:07.920Z,42.82
2022-08-09T11:11:09.102Z,43.00
2022-08-09T11:12:07.865Z,43.49
2022-08-09T11:13:07.808Z,43.54
2022-08-09T11:14:07.780Z,43.73
2022-08-09T11:15:07.758Z,43.81
2022-08-09T11:16:07.815Z,43.84
2022-08-09T11:17:07.710Z,43.89
2022-08-09T11:18:07.725Z,43.91
2022-08-09T11:19:09.706Z,44.21
2022-08-09T11:20:20.030Z,44.50
2022-08-09T11:21:07.616Z,44.44
2022-08-09T11:22:18.923Z,43.81
2022-08-09T11:23:10.420Z,43.50
2022-08-09T11:24:07.543Z,43.65
2022-08-09T11:25:08.204Z,43.81
2022-08-09T11:26:07.497Z,43.81
2022-08-09T11:27:07.473Z,43.84
2022-08-09T11:28:27.853Z,43.91
2022-08-09T11:29:07.424Z,43.76
2022-08-09T11:30:32.766Z,43.50
2022-08-09T11:31:07.379Z,43.69
2022-08-09T11:32:07.380Z,43.70
2022-08-09T11:33:07.327Z,43.92
2022-08-09T11:34:07.322Z,44.19
2022-08-09T11:35:07.292Z,44.29
2022-08-09T11:36:07.257Z,43.89
2022-08-09T11:37:07.781Z,43.49
2022-08-09T11:38:07.211Z,43.35
2022-08-09T11:39:07.243Z,42.86
2022-08-09T11:40:07.243Z,42.62
2022-08-09T11:41:07.141Z,42.73
2022-08-09T11:42:07.114Z,42.93
2022-08-09T11:43:07.092Z,42.82
2022-08-09T11:44:07.068Z,42.82
2022-08-09T11:45:07.047Z,42.46
2022-08-09T11:46:07.041Z,42.41
2022-08-09T11:47:07.001Z,42.43
2022-08-09T11:48:19.275Z,42.28
2022-08-09T11:49:06.951Z,42.06
2022-08-09T11:50:55.855Z,42.29
2022-08-09T11:52:59.233Z,42.44
2022-08-09T11:53:02.657Z,42.47
2022-08-09T11:53:16.307Z,42.53
2022-08-09T11:54:13.488Z,42.93
2022-08-09T11:55:06.804Z,42.86
2022-08-09T11:56:06.783Z,42.62
2022-08-09T11:57:06.761Z,42.51
2022-08-09T11:58:06.754Z,42.71
2022-08-09T11:59:06.756Z,42.58
2022-08-09T12:00:10.499Z,42.52
2022-08-09T12:01:08.938Z,42.43
2022-08-09T12:02:17.326Z,42.46
2022-08-09T12:03:31.972Z,42.75
2022-08-09T12:04:06.646Z,42.90
2022-08-09T12:05:06.684Z,43.38
2022-08-09T12:06:06.543Z,43.65
2022-08-09T12:07:08.159Z,43.69
2022-08-09T12:08:06.497Z,43.73
2022-08-09T12:09:06.472Z,44.25
2022-08-09T12:10:06.467Z,44.03
2022-08-09T12:11:12.798Z,44.21
2022-08-09T12:12:12.147Z,44.02
2022-08-09T12:14:06.950Z,44.22
2022-08-09T12:14:08.060Z,44.21
2022-08-09T12:15:09.007Z,44.29
2022-08-09T12:16:06.337Z,44.35
2022-08-09T12:17:28.340Z,44.35
2022-08-09T12:18:06.255Z,43.89
2022-08-09T12:19:06.233Z,43.94
2022-08-09T12:20:06.209Z,43.94
2022-08-09T12:21:26.338Z,43.97
2022-08-09T12:22:06.206Z,44.26
2022-08-09T12:23:06.136Z,44.37
2022-08-09T12:24:08.801Z,44.62
2022-08-09T12:25:06.093Z,44.96
2022-08-09T12:26:06.066Z,45.08
2022-08-09T12:29:11.081Z,45.18
2022-08-09T12:29:15.033Z,45.29
2022-08-09T12:29:29.754Z,45.32
2022-08-09T12:30:36.301Z,45.45
2022-08-09T12:31:11.130Z,45.20
2022-08-09T12:32:05.949Z,45.17
2022-08-09T12:33:05.913Z,45.18
2022-08-09T12:34:05.879Z,44.98
2022-08-09T12:35:05.858Z,45.01
2022-08-09T12:36:05.834Z,45.05
2022-08-09T12:37:09.749Z,45.10
2022-08-09T12:38:05.819Z,45.35
2022-08-09T12:39:05.792Z,45.67
2022-08-09T12:40:05.955Z,45.71
2022-08-09T12:41:07.232Z,45.83
2022-08-09T12:42:05.692Z,45.78
2022-08-09T12:43:05.674Z,45.51
2022-08-09T12:44:07.879Z,45.26
2022-08-09T12:45:07.029Z,45.33
2022-08-09T12:46:05.602Z,45.45
2022-08-09T12:47:05.581Z,45.69
2022-08-09T12:48:05.559Z,45.80
2022-08-09T12:49:05.533Z,45.89
2022-08-09T12:50:05.547Z,45.70
2022-08-09T12:51:05.493Z,45.66
2022-08-09T12:52:05.461Z,45.66
2022-08-09T12:53:17.670Z,45.54
2022-08-09T12:54:05.415Z,45.56
2022-08-09T12:56:14.197Z,45.88
2022-08-09T12:56:15.326Z,45.97
2022-08-09T12:57:05.352Z,45.86
2022-08-09T12:58:05.326Z,45.88